TFM - Tactical Decision Aid
ID: Runway Winds: CIG/VIS Threshold:

KAGS - Augusta Rgnl, GA, US

Updated at: 2030 UTC 25 Sep 2020
Latest TAF at: 1935 UTC 25 Sep 2020

TAF Board

Time1953Z 25/21Z 25/22Z 25/23Z 26/00Z 26/01Z 26/02Z 26/03Z 26/04Z 26/05Z 26/06Z 26/07Z 26/08Z 26/09Z>>
Type OBS PRVL
  [TEMP]  
PRVL
  [TEMP]  
PRVL PRVL PRVL PRVL PRVL PRVL PRVL PRVL PRVL PRVL PRVL
VIS 10 >6
  [5]  
>6
  [5]  
>6 >6 >6 >6 >6 >6 4 4 4 2 2
CIG 80 35
  [30]  
35
  [30]  
35 15 15 15 15 15 7 7 7 3 3
Cover BKN BKN
  [BKN]  
BKN
  [BKN]  
BKN BKN BKN BKN BKN BKN OVC OVC OVC OVC OVC
FltCat VFR VFR
  [MVFR]  
VFR
  [MVFR]  
VFR MVFR MVFR MVFR MVFR MVFR IFR IFR IFR LIFR LIFR
WX -- VCSH
  [-SHRA]  
VCSH
  [-SHRA]  
VCSH VCSH VCSH VCSH VCSH VCSH BR BR BR BR BR
WDir VRB 190
[190]
190
[190]
190 VRB VRB VRB VRB VRB VRB VRB VRB VRB VRB
WSpd 3 8
  [8]  
8
  [8]  
8 4 4 4 4 4 0 0 0 3 3
WGst -- --
  [--]  
--
  [--]  
-- -- -- -- -- -- -- -- -- -- --

TDA Impact Legend

  None Marginal Slight Moderate High
Visibility (sm) >5 3≤X≤5 2≤X<3 0.5≤X<2 <0.5
Ceiling (100 ft) >30 10≤X≤30 7≤X<10 2≤X<7 <2
Wind Speed (kt) <15 15≤X<25 25≤X<30 ≥30
Wind Gust (kt) <15 15≤X<25 25≤X<35 ≥35
Weather No Wx Reported VCTS -TS,-FZRA TS,FZRA +TS,+FZRA
TAF
KAGS 251935Z 2520/2618 19008KT P6SM VCSH SCT015 BKN035
  TEMPO 2521/2523 5SM -SHRA BKN030
  FM260000 VRB04KT P6SM VCSH SCT008 BKN015
  FM260500 00000KT 4SM BR OVC007
  FM260800 VRB03KT 2SM BR OVC003
  TEMPO 2610/2613 1/2SM FG OVC001
  FM261500 VRB03KT 5SM BR OVC006


METAR
KAGS 251953Z VRB03KT 10SM SCT020 BKN080 29/23 A2992 RMK AO2 RAB10E20 SLP128 P0000 T02940228
KAGS 251853Z COR 28004KT 10SM SCT014 BKN055 BKN080 28/23 A2994 RMK AO2 RAE21 SLP136 P0001 T02830233
KAGS 251824Z 32003KT 10SM FEW032 BKN060 OVC080 27/24 A2995 RMK AO2 LTG DSNT NE RAE21 P0001 T02670239
KAGS 251802Z 28007KT 6SM VCTS -RA BR SCT020 BKN035 OVC050 26/23 A2996 RMK AO2 P0000 T02560233
KAGS 251753Z 29009KT 6SM -RA BR BKN021 OVC032 26/23 A2996 RMK AO2 RAB45 SLP141 P0000 60000 T02560233 10294 20233 58010
KAGS 251732Z 22004KT 10SM BKN019 BKN026 OVC055 28/23 A2996 RMK AO2 T02830228

Radar Display
Forecast Discussion